sensor_id;sensor_type;location;lat;lon;timestamp;pressure;altitude;pressure_sealevel;temperature;humidity
47556;BME280;33291;46.222;26.460;2023-05-19T00:01:46;96835.94;;;13.76;90.09
47556;BME280;33291;46.222;26.460;2023-05-19T00:04:15;96824.81;;;13.74;90.05
47556;BME280;33291;46.222;26.460;2023-05-19T00:06:41;96834.44;;;13.74;90.18
47556;BME280;33291;46.222;26.460;2023-05-19T00:09:08;96819.94;;;13.61;91.94
47556;BME280;33291;46.222;26.460;2023-05-19T00:11:36;96829.31;;;13.64;91.35
47556;BME280;33291;46.222;26.460;2023-05-19T00:14:03;96836.31;;;13.63;91.58
47556;BME280;33291;46.222;26.460;2023-05-19T00:16:30;96835.34;;;13.64;91.58
47556;BME280;33291;46.222;26.460;2023-05-19T00:19:00;96835.34;;;13.64;91.40
47556;BME280;33291;46.222;26.460;2023-05-19T00:21:27;96839.78;;;13.64;91.31
47556;BME280;33291;46.222;26.460;2023-05-19T00:23:52;96828.75;;;13.60;91.37
47556;BME280;33291;46.222;26.460;2023-05-19T00:26:18;96839.53;;;13.57;91.72
47556;BME280;33291;46.222;26.460;2023-05-19T00:28:44;96840.13;;;13.51;91.84
47556;BME280;33291;46.222;26.460;2023-05-19T00:31:09;96828.94;;;13.41;92.21
47556;BME280;33291;46.222;26.460;2023-05-19T00:33:35;96824.06;;;13.46;92.15
47556;BME280;33291;46.222;26.460;2023-05-19T00:36:01;96831.25;;;13.44;91.80
47556;BME280;33291;46.222;26.460;2023-05-19T00:38:29;96838.78;;;13.47;91.37
47556;BME280;33291;46.222;26.460;2023-05-19T00:40:55;96841.56;;;13.45;91.31
47556;BME280;33291;46.222;26.460;2023-05-19T00:43:20;96846.78;;;13.45;91.47
47556;BME280;33291;46.222;26.460;2023-05-19T00:45:46;96843.19;;;13.46;91.30
47556;BME280;33291;46.222;26.460;2023-05-19T00:48:11;96847.59;;;13.46;91.21
47556;BME280;33291;46.222;26.460;2023-05-19T00:50:37;96847.91;;;13.43;91.42
47556;BME280;33291;46.222;26.460;2023-05-19T00:53:02;96842.81;;;13.41;91.39
47556;BME280;33291;46.222;26.460;2023-05-19T00:55:29;96832.38;;;13.31;93.25
47556;BME280;33291;46.222;26.460;2023-05-19T00:57:56;96835.72;;;13.24;92.92
47556;BME280;33291;46.222;26.460;2023-05-19T01:00:22;96845.91;;;13.27;92.96
47556;BME280;33291;46.222;26.460;2023-05-19T01:02:48;96846.03;;;13.25;93.45
47556;BME280;33291;46.222;26.460;2023-05-19T01:05:15;96847.41;;;13.29;94.04
47556;BME280;33291;46.222;26.460;2023-05-19T01:07:41;96847.25;;;13.31;94.17
47556;BME280;33291;46.222;26.460;2023-05-19T01:10:07;96841.22;;;13.30;94.56
47556;BME280;33291;46.222;26.460;2023-05-19T01:12:33;96850.47;;;13.25;96.04
47556;BME280;33291;46.222;26.460;2023-05-19T01:14:59;96841.41;;;13.19;96.11
47556;BME280;33291;46.222;26.460;2023-05-19T01:17:44;96838.13;;;13.17;96.66
47556;BME280;33291;46.222;26.460;2023-05-19T01:20:21;96841.84;;;13.14;96.77
47556;BME280;33291;46.222;26.460;2023-05-19T01:26:24;96846.69;;;13.09;98.00
47556;BME280;33291;46.222;26.460;2023-05-19T01:31:36;96858.25;;;13.07;98.60
47556;BME280;33291;46.222;26.460;2023-05-19T01:34:02;96856.63;;;13.06;98.63
47556;BME280;33291;46.222;26.460;2023-05-19T01:36:30;96863.25;;;13.00;98.80
47556;BME280;33291;46.222;26.460;2023-05-19T01:38:57;96861.75;;;12.97;98.96
47556;BME280;33291;46.222;26.460;2023-05-19T01:41:24;96876.78;;;12.95;99.17
47556;BME280;33291;46.222;26.460;2023-05-19T01:43:50;96864.56;;;12.86;99.07
47556;BME280;33291;46.222;26.460;2023-05-19T01:46:16;96850.31;;;12.71;98.96
47556;BME280;33291;46.222;26.460;2023-05-19T01:48:43;96874.31;;;12.84;98.92
47556;BME280;33291;46.222;26.460;2023-05-19T01:51:09;96883.16;;;12.83;99.22
47556;BME280;33291;46.222;26.460;2023-05-19T01:53:34;96875.19;;;12.75;99.19
47556;BME280;33291;46.222;26.460;2023-05-19T01:56:01;96873.72;;;12.72;99.21
47556;BME280;33291;46.222;26.460;2023-05-19T01:58:43;96877.13;;;12.73;99.37
47556;BME280;33291;46.222;26.460;2023-05-19T02:01:19;96874.09;;;12.68;99.10
47556;BME280;33291;46.222;26.460;2023-05-19T02:06:51;96874.97;;;12.58;99.33
47556;BME280;33291;46.222;26.460;2023-05-19T02:09:25;96882.28;;;12.55;99.32
47556;BME280;33291;46.222;26.460;2023-05-19T02:12:27;96878.84;;;12.44;98.91
47556;BME280;33291;46.222;26.460;2023-05-19T02:15:15;96890.16;;;12.45;99.45
47556;BME280;33291;46.222;26.460;2023-05-19T02:17:43;96889.88;;;12.38;99.01
47556;BME280;33291;46.222;26.460;2023-05-19T02:20:13;96889.63;;;12.32;99.31
47556;BME280;33291;46.222;26.460;2023-05-19T02:22:39;96898.97;;;12.24;99.52
47556;BME280;33291;46.222;26.460;2023-05-19T02:25:05;96898.44;;;12.21;99.54
47556;BME280;33291;46.222;26.460;2023-05-19T02:27:31;96911.34;;;12.13;100.00
47556;BME280;33291;46.222;26.460;2023-05-19T02:29:57;96905.31;;;12.12;100.00
47556;BME280;33291;46.222;26.460;2023-05-19T02:32:22;96917.41;;;12.13;100.00
47556;BME280;33291;46.222;26.460;2023-05-19T02:34:48;96922.88;;;12.20;100.00
47556;BME280;33291;46.222;26.460;2023-05-19T02:37:14;96931.53;;;12.20;100.00
47556;BME280;33291;46.222;26.460;2023-05-19T02:39:41;96941.31;;;12.18;100.00
47556;BME280;33291;46.222;26.460;2023-05-19T02:42:07;96933.75;;;12.15;100.00
47556;BME280;33291;46.222;26.460;2023-05-19T02:44:32;96935.81;;;12.12;100.00
47556;BME280;33291;46.222;26.460;2023-05-19T02:46:57;96927.56;;;12.06;100.00
47556;BME280;33291;46.222;26.460;2023-05-19T02:49:23;96941.59;;;12.15;100.00
47556;BME280;33291;46.222;26.460;2023-05-19T02:51:48;96926.88;;;12.14;100.00
47556;BME280;33291;46.222;26.460;2023-05-19T02:54:14;96932.66;;;12.18;100.00
47556;BME280;33291;46.222;26.460;2023-05-19T02:56:39;96925.91;;;12.15;100.00
47556;BME280;33291;46.222;26.460;2023-05-19T02:59:05;96916.00;;;12.19;100.00
47556;BME280;33291;46.222;26.460;2023-05-19T03:01:30;96928.94;;;12.20;100.00
47556;BME280;33291;46.222;26.460;2023-05-19T03:03:58;96925.22;;;12.23;100.00
47556;BME280;33291;46.222;26.460;2023-05-19T03:06:24;96932.09;;;12.24;100.00
47556;BME280;33291;46.222;26.460;2023-05-19T03:08:50;96929.34;;;12.25;100.00
47556;BME280;33291;46.222;26.460;2023-05-19T03:11:16;96933.34;;;12.20;100.00
47556;BME280;33291;46.222;26.460;2023-05-19T03:13:41;96928.94;;;12.20;100.00
47556;BME280;33291;46.222;26.460;2023-05-19T03:16:07;96924.25;;;12.14;100.00
47556;BME280;33291;46.222;26.460;2023-05-19T03:18:36;96938.84;;;12.17;100.00
47556;BME280;33291;46.222;26.460;2023-05-19T03:21:02;96915.88;;;12.11;100.00
47556;BME280;33291;46.222;26.460;2023-05-19T03:23:27;96924.81;;;12.18;100.00
47556;BME280;33291;46.222;26.460;2023-05-19T03:25:53;96910.25;;;12.15;100.00
47556;BME280;33291;46.222;26.460;2023-05-19T03:28:20;96905.03;;;12.15;100.00
47556;BME280;33291;46.222;26.460;2023-05-19T03:30:45;96907.34;;;12.18;100.00
47556;BME280;33291;46.222;26.460;2023-05-19T03:33:14;96908.31;;;12.17;100.00
47556;BME280;33291;46.222;26.460;2023-05-19T03:35:39;96914.09;;;12.21;100.00
47556;BME280;33291;46.222;26.460;2023-05-19T03:38:05;96901.59;;;12.15;100.00
47556;BME280;33291;46.222;26.460;2023-05-19T03:40:30;96918.47;;;12.20;100.00
47556;BME280;33291;46.222;26.460;2023-05-19T03:42:56;96901.03;;;12.11;100.00
47556;BME280;33291;46.222;26.460;2023-05-19T03:45:21;96914.38;;;12.18;100.00
47556;BME280;33291;46.222;26.460;2023-05-19T03:47:46;96916.56;;;12.22;100.00
47556;BME280;33291;46.222;26.460;2023-05-19T03:50:12;96925.91;;;12.25;100.00
47556;BME280;33291;46.222;26.460;2023-05-19T03:52:38;96926.47;;;12.29;100.00
47556;BME280;33291;46.222;26.460;2023-05-19T03:55:04;96941.00;;;12.31;100.00
47556;BME280;33291;46.222;26.460;2023-05-19T03:57:31;96958.47;;;12.31;100.00
47556;BME280;33291;46.222;26.460;2023-05-19T03:59:58;96958.63;;;12.29;100.00
47556;BME280;33291;46.222;26.460;2023-05-19T04:02:23;96945.41;;;12.31;100.00
47556;BME280;33291;46.222;26.460;2023-05-19T04:04:49;96949.56;;;12.33;100.00
47556;BME280;33291;46.222;26.460;2023-05-19T04:07:15;96915.34;;;12.17;100.00
47556;BME280;33291;46.222;26.460;2023-05-19T04:09:40;96944.88;;;12.37;100.00
47556;BME280;33291;46.222;26.460;2023-05-19T04:12:06;96960.41;;;12.38;100.00
47556;BME280;33291;46.222;26.460;2023-05-19T04:14:32;96955.03;;;12.40;100.00
47556;BME280;33291;46.222;26.460;2023-05-19T04:16:58;96945.28;;;12.42;100.00
47556;BME280;33291;46.222;26.460;2023-05-19T04:19:24;96946.09;;;12.42;100.00
47556;BME280;33291;46.222;26.460;2023-05-19T04:21:49;96945.97;;;12.44;100.00
47556;BME280;33291;46.222;26.460;2023-05-19T04:24:15;96941.31;;;12.38;100.00
47556;BME280;33291;46.222;26.460;2023-05-19T04:26:41;96945.97;;;12.44;100.00
47556;BME280;33291;46.222;26.460;2023-05-19T04:29:10;96947.47;;;12.47;100.00
47556;BME280;33291;46.222;26.460;2023-05-19T04:31:40;96933.56;;;12.46;100.00
47556;BME280;33291;46.222;26.460;2023-05-19T04:34:06;96943.19;;;12.55;100.00
47556;BME280;33291;46.222;26.460;2023-05-19T04:36:35;96952.81;;;12.55;100.00
47556;BME280;33291;46.222;26.460;2023-05-19T04:39:01;96962.47;;;12.54;100.00
47556;BME280;33291;46.222;26.460;2023-05-19T04:41:27;96963.41;;;12.53;100.00
47556;BME280;33291;46.222;26.460;2023-05-19T04:43:53;96966.28;;;12.60;100.00
47556;BME280;33291;46.222;26.460;2023-05-19T04:46:21;96972.06;;;12.64;100.00
47556;BME280;33291;46.222;26.460;2023-05-19T04:48:52;96965.31;;;12.71;100.00
47556;BME280;33291;46.222;26.460;2023-05-19T04:51:21;96958.16;;;12.73;100.00
47556;BME280;33291;46.222;26.460;2023-05-19T04:53:47;96962.16;;;12.77;100.00
47556;BME280;33291;46.222;26.460;2023-05-19T04:56:13;96958.25;;;12.81;100.00
47556;BME280;33291;46.222;26.460;2023-05-19T04:58:40;96963.06;;;12.86;100.00
47556;BME280;33291;46.222;26.460;2023-05-19T05:01:06;96968.28;;;12.86;100.00
47556;BME280;33291;46.222;26.460;2023-05-19T05:03:33;96971.47;;;12.89;100.00
47556;BME280;33291;46.222;26.460;2023-05-19T05:05:59;96975.56;;;12.92;100.00
47556;BME280;33291;46.222;26.460;2023-05-19T05:08:25;96977.09;;;12.94;100.00
47556;BME280;33291;46.222;26.460;2023-05-19T05:10:51;96978.47;;;12.98;100.00
47556;BME280;33291;46.222;26.460;2023-05-19T05:13:19;96977.88;;;13.05;100.00
47556;BME280;33291;46.222;26.460;2023-05-19T05:15:45;96976.66;;;13.09;100.00
47556;BME280;33291;46.222;26.460;2023-05-19T05:18:12;96967.81;;;13.10;100.00
47556;BME280;33291;46.222;26.460;2023-05-19T05:20:38;96965.78;;;13.04;100.00
47556;BME280;33291;46.222;26.460;2023-05-19T05:23:03;96969.47;;;13.11;100.00
47556;BME280;33291;46.222;26.460;2023-05-19T05:25:29;96985.69;;;13.24;100.00
47556;BME280;33291;46.222;26.460;2023-05-19T05:27:55;96981.63;;;13.30;100.00
47556;BME280;33291;46.222;26.460;2023-05-19T05:30:23;96988.09;;;13.45;100.00
47556;BME280;33291;46.222;26.460;2023-05-19T05:32:48;96990.81;;;13.54;100.00
47556;BME280;33291;46.222;26.460;2023-05-19T05:35:14;96986.38;;;13.54;100.00
47556;BME280;33291;46.222;26.460;2023-05-19T05:37:40;96983.75;;;13.64;100.00
47556;BME280;33291;46.222;26.460;2023-05-19T05:40:06;96990.94;;;13.80;100.00
47556;BME280;33291;46.222;26.460;2023-05-19T05:42:31;96992.66;;;13.89;100.00
47556;BME280;33291;46.222;26.460;2023-05-19T05:44:57;96986.56;;;13.98;100.00
47556;BME280;33291;46.222;26.460;2023-05-19T05:47:22;96988.00;;;14.11;100.00
47556;BME280;33291;46.222;26.460;2023-05-19T05:49:48;96981.88;;;14.20;99.47
47556;BME280;33291;46.222;26.460;2023-05-19T05:52:14;96987.56;;;14.33;97.86
47556;BME280;33291;46.222;26.460;2023-05-19T05:54:40;96982.72;;;14.47;96.27
47556;BME280;33291;46.222;26.460;2023-05-19T05:57:06;96981.97;;;14.54;94.37
47556;BME280;33291;46.222;26.460;2023-05-19T05:59:32;96980.81;;;14.67;93.78
47556;BME280;33291;46.222;26.460;2023-05-19T06:01:58;96981.38;;;14.79;93.23
47556;BME280;33291;46.222;26.460;2023-05-19T06:04:23;96983.09;;;14.88;92.51
47556;BME280;33291;46.222;26.460;2023-05-19T06:06:49;96980.19;;;14.99;91.87
47556;BME280;33291;46.222;26.460;2023-05-19T06:09:17;96986.81;;;15.12;91.82
47556;BME280;33291;46.222;26.460;2023-05-19T06:11:42;96986.25;;;15.26;90.33
47556;BME280;33291;46.222;26.460;2023-05-19T06:14:08;96980.72;;;15.37;89.70
47556;BME280;33291;46.222;26.460;2023-05-19T06:16:33;96991.72;;;15.41;89.30
47556;BME280;33291;46.222;26.460;2023-05-19T06:18:59;96984.00;;;15.39;90.32
47556;BME280;33291;46.222;26.460;2023-05-19T06:21:24;96964.91;;;15.21;90.51
47556;BME280;33291;46.222;26.460;2023-05-19T06:23:50;96994.50;;;15.39;91.45
47556;BME280;33291;46.222;26.460;2023-05-19T06:26:15;96990.91;;;15.40;91.11
47556;BME280;33291;46.222;26.460;2023-05-19T06:28:41;97000.16;;;15.53;91.69
47556;BME280;33291;46.222;26.460;2023-05-19T06:31:06;96997.25;;;15.64;90.68
47556;BME280;33291;46.222;26.460;2023-05-19T06:33:32;96993.34;;;15.76;88.39
47556;BME280;33291;46.222;26.460;2023-05-19T06:35:58;97002.78;;;15.87;87.21
47556;BME280;33291;46.222;26.460;2023-05-19T06:38:23;96995.59;;;15.97;86.27
47556;BME280;33291;46.222;26.460;2023-05-19T06:40:49;97003.31;;;16.07;86.70
47556;BME280;33291;46.222;26.460;2023-05-19T06:43:14;97007.75;;;16.15;86.10
47556;BME280;33291;46.222;26.460;2023-05-19T06:45:40;97005.81;;;16.25;84.35
47556;BME280;33291;46.222;26.460;2023-05-19T06:48:05;96997.94;;;16.25;75.76
47556;BME280;33291;46.222;26.460;2023-05-19T06:50:31;97000.88;;;16.30;77.11
47556;BME280;33291;46.222;26.460;2023-05-19T06:52:56;96995.13;;;16.35;79.16
47556;BME280;33291;46.222;26.460;2023-05-19T06:55:22;97007.00;;;16.47;78.41
47556;BME280;33291;46.222;26.460;2023-05-19T06:57:48;96996.78;;;16.61;76.53
47556;BME280;33291;46.222;26.460;2023-05-19T07:00:13;96979.84;;;16.72;74.86
47556;BME280;33291;46.222;26.460;2023-05-19T07:02:41;96991.03;;;16.98;73.47
47556;BME280;33291;46.222;26.460;2023-05-19T07:05:06;97001.72;;;17.13;71.74
47556;BME280;33291;46.222;26.460;2023-05-19T07:07:32;97000.69;;;17.22;69.98
47556;BME280;33291;46.222;26.460;2023-05-19T07:09:59;96989.19;;;17.23;70.15
47556;BME280;33291;46.222;26.460;2023-05-19T07:12:25;96993.91;;;17.36;70.68
47556;BME280;33291;46.222;26.460;2023-05-19T07:14:51;96991.28;;;17.45;70.37
47556;BME280;33291;46.222;26.460;2023-05-19T07:17:16;96982.34;;;17.54;67.09
47556;BME280;33291;46.222;26.460;2023-05-19T07:19:42;96984.47;;;17.58;67.75
47556;BME280;33291;46.222;26.460;2023-05-19T07:22:07;96980.31;;;17.64;68.67
47556;BME280;33291;46.222;26.460;2023-05-19T07:24:33;96982.41;;;17.77;68.17
47556;BME280;33291;46.222;26.460;2023-05-19T07:26:58;96983.69;;;17.89;67.57
47556;BME280;33291;46.222;26.460;2023-05-19T07:29:24;96986.28;;;17.98;66.22
47556;BME280;33291;46.222;26.460;2023-05-19T07:31:49;96971.28;;;17.98;65.12
47556;BME280;33291;46.222;26.460;2023-05-19T07:34:24;96972.69;;;18.09;64.21
47556;BME280;33291;46.222;26.460;2023-05-19T07:36:50;96963.81;;;18.10;63.77
47556;BME280;33291;46.222;26.460;2023-05-19T07:39:16;96958.81;;;18.15;63.50
47556;BME280;33291;46.222;26.460;2023-05-19T07:41:41;96979.03;;;18.23;63.28
47556;BME280;33291;46.222;26.460;2023-05-19T07:44:07;96974.34;;;18.33;63.10
47556;BME280;33291;46.222;26.460;2023-05-19T07:46:33;96971.28;;;18.44;61.75
47556;BME280;33291;46.222;26.460;2023-05-19T07:48:59;96973.03;;;18.52;61.88
47556;BME280;33291;46.222;26.460;2023-05-19T07:51:24;96968.34;;;18.62;60.13
47556;BME280;33291;46.222;26.460;2023-05-19T07:53:50;96954.97;;;18.64;58.23
47556;BME280;33291;46.222;26.460;2023-05-19T07:56:17;96972.50;;;18.80;58.00
47556;BME280;33291;46.222;26.460;2023-05-19T07:58:42;96966.84;;;18.83;54.30
47556;BME280;33291;46.222;26.460;2023-05-19T08:01:08;96956.94;;;18.85;56.24
47556;BME280;33291;46.222;26.460;2023-05-19T08:03:33;96956.78;;;19.02;56.62
47556;BME280;33291;46.222;26.460;2023-05-19T08:05:59;96963.44;;;19.12;55.93
47556;BME280;33291;46.222;26.460;2023-05-19T08:08:24;96958.44;;;19.17;56.30
47556;BME280;33291;46.222;26.460;2023-05-19T08:10:50;96970.19;;;19.30;54.96
47556;BME280;33291;46.222;26.460;2023-05-19T08:13:16;96967.81;;;19.35;53.68
47556;BME280;33291;46.222;26.460;2023-05-19T08:15:42;96964.63;;;19.40;52.80
47556;BME280;33291;46.222;26.460;2023-05-19T08:18:07;96968.56;;;19.44;53.74
47556;BME280;33291;46.222;26.460;2023-05-19T08:20:32;96962.91;;;19.47;53.88
47556;BME280;33291;46.222;26.460;2023-05-19T08:22:58;96961.16;;;19.54;53.51
47556;BME280;33291;46.222;26.460;2023-05-19T08:25:24;96954.31;;;19.60;53.83
47556;BME280;33291;46.222;26.460;2023-05-19T08:27:49;96959.50;;;19.68;53.64
47556;BME280;33291;46.222;26.460;2023-05-19T08:30:15;96962.22;;;19.75;52.66
47556;BME280;33291;46.222;26.460;2023-05-19T08:32:40;96959.47;;;19.83;52.34
47556;BME280;33291;46.222;26.460;2023-05-19T08:35:07;96956.31;;;19.87;52.69
47556;BME280;33291;46.222;26.460;2023-05-19T08:37:32;96958.88;;;20.02;52.03
47556;BME280;33291;46.222;26.460;2023-05-19T08:40:01;96960.53;;;20.03;51.46
47556;BME280;33291;46.222;26.460;2023-05-19T08:42:28;96957.63;;;19.98;51.70
47556;BME280;33291;46.222;26.460;2023-05-19T08:44:54;96952.53;;;19.97;52.49
47556;BME280;33291;46.222;26.460;2023-05-19T08:47:19;96957.50;;;20.06;52.53
47556;BME280;33291;46.222;26.460;2023-05-19T08:49:50;96950.66;;;20.12;52.23
47556;BME280;33291;46.222;26.460;2023-05-19T08:52:31;96950.72;;;20.19;51.20
47556;BME280;33291;46.222;26.460;2023-05-19T08:55:06;96942.16;;;20.17;49.50
47556;BME280;33291;46.222;26.460;2023-05-19T08:57:34;96937.28;;;20.20;49.89
47556;BME280;33291;46.222;26.460;2023-05-19T09:00:02;96948.81;;;20.34;50.84
47556;BME280;33291;46.222;26.460;2023-05-19T09:02:33;96938.63;;;20.53;49.10
47556;BME280;33291;46.222;26.460;2023-05-19T09:05:00;96942.50;;;20.57;49.41
47556;BME280;33291;46.222;26.460;2023-05-19T09:07:28;96941.94;;;20.62;49.26
47556;BME280;33291;46.222;26.460;2023-05-19T09:09:55;96937.13;;;20.65;49.06
47556;BME280;33291;46.222;26.460;2023-05-19T09:12:21;96938.22;;;20.77;47.55
47556;BME280;33291;46.222;26.460;2023-05-19T09:14:47;96937.22;;;20.79;48.60
47556;BME280;33291;46.222;26.460;2023-05-19T09:17:12;96935.22;;;20.87;48.29
47556;BME280;33291;46.222;26.460;2023-05-19T09:19:43;96931.56;;;20.88;48.12
47556;BME280;33291;46.222;26.460;2023-05-19T09:22:09;96923.91;;;21.00;45.59
47556;BME280;33291;46.222;26.460;2023-05-19T09:24:35;96913.53;;;21.05;44.89
47556;BME280;33291;46.222;26.460;2023-05-19T09:27:02;96927.25;;;21.16;44.96
47556;BME280;33291;46.222;26.460;2023-05-19T09:29:27;96915.88;;;21.22;44.39
47556;BME280;33291;46.222;26.460;2023-05-19T09:31:55;96920.00;;;21.31;44.58
47556;BME280;33291;46.222;26.460;2023-05-19T09:34:30;96924.50;;;21.37;45.03
47556;BME280;33291;46.222;26.460;2023-05-19T09:36:56;96933.31;;;21.44;44.54
47556;BME280;33291;46.222;26.460;2023-05-19T09:39:24;96925.75;;;21.41;45.27
47556;BME280;33291;46.222;26.460;2023-05-19T09:41:51;96918.50;;;21.50;44.97
47556;BME280;33291;46.222;26.460;2023-05-19T09:44:23;96919.13;;;21.59;44.88
47556;BME280;33291;46.222;26.460;2023-05-19T09:46:53;96927.06;;;21.59;44.17
47556;BME280;33291;46.222;26.460;2023-05-19T09:49:23;96918.50;;;21.63;44.47
47556;BME280;33291;46.222;26.460;2023-05-19T09:51:56;96929.16;;;21.70;43.40
47556;BME280;33291;46.222;26.460;2023-05-19T09:54:22;96933.66;;;21.70;43.16
47556;BME280;33291;46.222;26.460;2023-05-19T09:56:58;96922.22;;;21.69;43.10
47556;BME280;33291;46.222;26.460;2023-05-19T09:59:25;96923.81;;;21.63;43.10
47556;BME280;33291;46.222;26.460;2023-05-19T10:01:53;96927.31;;;21.64;44.33
47556;BME280;33291;46.222;26.460;2023-05-19T10:04:20;96915.66;;;21.65;44.05
47556;BME280;33291;46.222;26.460;2023-05-19T10:06:48;96913.66;;;21.67;44.78
47556;BME280;33291;46.222;26.460;2023-05-19T10:09:22;96911.84;;;21.74;44.94
47556;BME280;33291;46.222;26.460;2023-05-19T10:11:51;96914.31;;;21.89;43.43
47556;BME280;33291;46.222;26.460;2023-05-19T10:14:21;96910.44;;;21.92;42.68
47556;BME280;33291;46.222;26.460;2023-05-19T10:16:50;96903.94;;;21.94;43.60
47556;BME280;33291;46.222;26.460;2023-05-19T10:19:22;96905.59;;;22.02;44.78
47556;BME280;33291;46.222;26.460;2023-05-19T10:21:48;96908.88;;;22.17;43.89
47556;BME280;33291;46.222;26.460;2023-05-19T10:24:14;96903.97;;;22.28;44.60
47556;BME280;33291;46.222;26.460;2023-05-19T10:26:45;96909.31;;;22.34;42.45
47556;BME280;33291;46.222;26.460;2023-05-19T10:29:16;96900.75;;;22.32;42.20
47556;BME280;33291;46.222;26.460;2023-05-19T10:31:43;96913.00;;;22.33;42.85
47556;BME280;33291;46.222;26.460;2023-05-19T10:39:58;96906.88;;;22.46;40.68
47556;BME280;33291;46.222;26.460;2023-05-19T10:45:47;96887.28;;;22.47;39.97
47556;BME280;33291;46.222;26.460;2023-05-19T10:48:18;96894.41;;;22.60;38.23
47556;BME280;33291;46.222;26.460;2023-05-19T10:50:45;96885.41;;;22.54;39.22
47556;BME280;33291;46.222;26.460;2023-05-19T10:53:17;96881.34;;;22.59;41.16
47556;BME280;33291;46.222;26.460;2023-05-19T10:55:45;96891.97;;;22.59;40.75
47556;BME280;33291;46.222;26.460;2023-05-19T10:58:11;96882.78;;;22.61;40.49
47556;BME280;33291;46.222;26.460;2023-05-19T11:00:38;96885.22;;;22.63;40.38
47556;BME280;33291;46.222;26.460;2023-05-19T11:03:15;96889.53;;;22.64;40.66
47556;BME280;33291;46.222;26.460;2023-05-19T11:05:42;96887.06;;;22.69;40.10
47556;BME280;33291;46.222;26.460;2023-05-19T11:08:10;96885.63;;;22.73;40.47
47556;BME280;33291;46.222;26.460;2023-05-19T11:10:36;96898.28;;;22.71;39.48
47556;BME280;33291;46.222;26.460;2023-05-19T11:13:03;96901.53;;;22.80;38.54
47556;BME280;33291;46.222;26.460;2023-05-19T11:15:34;96886.81;;;22.77;38.27
47556;BME280;33291;46.222;26.460;2023-05-19T11:18:01;96890.31;;;22.78;38.44
47556;BME280;33291;46.222;26.460;2023-05-19T11:20:28;96883.53;;;22.82;39.38
47556;BME280;33291;46.222;26.460;2023-05-19T11:23:04;96882.34;;;22.78;40.09
47556;BME280;33291;46.222;26.460;2023-05-19T11:25:50;96886.84;;;22.70;40.01
47556;BME280;33291;46.222;26.460;2023-05-19T11:28:19;96888.88;;;22.62;40.61
47556;BME280;33291;46.222;26.460;2023-05-19T11:30:47;96876.84;;;22.66;39.91
47556;BME280;33291;46.222;26.460;2023-05-19T11:33:16;96881.94;;;22.74;40.32
47556;BME280;33291;46.222;26.460;2023-05-19T11:35:49;96870.69;;;22.79;38.64
47556;BME280;33291;46.222;26.460;2023-05-19T11:38:16;96863.72;;;22.84;37.43
47556;BME280;33291;46.222;26.460;2023-05-19T11:40:43;96861.25;;;22.89;36.81
47556;BME280;33291;46.222;26.460;2023-05-19T11:43:09;96870.44;;;22.94;35.52
47556;BME280;33291;46.222;26.460;2023-05-19T11:45:34;96876.56;;;23.01;35.55
47556;BME280;33291;46.222;26.460;2023-05-19T11:48:00;96871.66;;;23.04;35.83
47556;BME280;33291;46.222;26.460;2023-05-19T11:50:27;96877.41;;;22.95;36.53
47556;BME280;33291;46.222;26.460;2023-05-19T11:52:54;96862.91;;;22.91;37.29
47556;BME280;33291;46.222;26.460;2023-05-19T11:55:20;96874.53;;;22.96;37.19
47556;BME280;33291;46.222;26.460;2023-05-19T11:57:59;96859.41;;;22.97;37.56
47556;BME280;33291;46.222;26.460;2023-05-19T12:00:26;96853.88;;;22.98;38.11
47556;BME280;33291;46.222;26.460;2023-05-19T12:02:52;96850.00;;;23.01;38.89
47556;BME280;33291;46.222;26.460;2023-05-19T12:05:26;96856.75;;;23.10;38.10
47556;BME280;33291;46.222;26.460;2023-05-19T12:07:55;96863.06;;;23.09;39.44
47556;BME280;33291;46.222;26.460;2023-05-19T12:10:31;96872.06;;;23.15;38.94
47556;BME280;33291;46.222;26.460;2023-05-19T12:12:58;96851.81;;;23.20;36.55
47556;BME280;33291;46.222;26.460;2023-05-19T12:15:24;96857.34;;;23.19;36.87
47556;BME280;33291;46.222;26.460;2023-05-19T12:20:18;96863.66;;;23.24;37.91
47556;BME280;33291;46.222;26.460;2023-05-19T12:22:45;96859.09;;;23.32;36.36
47556;BME280;33291;46.222;26.460;2023-05-19T12:25:12;96857.28;;;23.26;36.22
47556;BME280;33291;46.222;26.460;2023-05-19T12:27:38;96845.06;;;23.24;34.68
47556;BME280;33291;46.222;26.460;2023-05-19T12:30:04;96852.63;;;23.21;34.46
47556;BME280;33291;46.222;26.460;2023-05-19T12:32:32;96849.31;;;23.26;32.75
47556;BME280;33291;46.222;26.460;2023-05-19T12:35:01;96851.97;;;23.26;30.93
47556;BME280;33291;46.222;26.460;2023-05-19T12:37:27;96838.91;;;23.24;31.01
47556;BME280;33291;46.222;26.460;2023-05-19T12:39:54;96832.16;;;23.21;31.26
47556;BME280;33291;46.222;26.460;2023-05-19T12:42:21;96835.25;;;23.18;31.46
47556;BME280;33291;46.222;26.460;2023-05-19T12:44:49;96848.31;;;23.27;32.38
47556;BME280;33291;46.222;26.460;2023-05-19T12:47:17;96833.16;;;23.34;32.80
47556;BME280;33291;46.222;26.460;2023-05-19T12:50:13;96831.91;;;23.36;33.08
47556;BME280;33291;46.222;26.460;2023-05-19T12:52:46;96825.78;;;23.36;32.25
47556;BME280;33291;46.222;26.460;2023-05-19T12:55:11;96829.88;;;23.32;32.57
47556;BME280;33291;46.222;26.460;2023-05-19T12:57:47;96820.06;;;23.32;32.72
47556;BME280;33291;46.222;26.460;2023-05-19T13:00:14;96832.72;;;23.37;31.27
47556;BME280;33291;46.222;26.460;2023-05-19T13:05:21;96817.38;;;23.39;30.21
47556;BME280;33291;46.222;26.460;2023-05-19T13:07:56;96812.06;;;23.39;30.74
47556;BME280;33291;46.222;26.460;2023-05-19T13:10:23;96823.28;;;23.41;32.29
47556;BME280;33291;46.222;26.460;2023-05-19T13:12:51;96819.22;;;23.38;33.29